createdAt,value
2018-10-06T00:00:18.208Z,78.80
2018-10-06T00:02:46.899Z,79.30
2018-10-06T00:05:15.600Z,79.60
2018-10-06T00:07:44.407Z,79.70
2018-10-06T00:10:13.086Z,80.00
2018-10-06T00:12:41.729Z,80.40
2018-10-06T00:15:10.699Z,80.20
2018-10-06T00:17:39.509Z,80.70
2018-10-06T00:20:09.065Z,80.70
2018-10-06T00:22:37.812Z,80.90
2018-10-06T00:25:06.835Z,81.40
2018-10-06T00:27:35.521Z,81.30
2018-10-06T00:30:04.285Z,81.50
2018-10-06T00:32:32.963Z,81.80
2018-10-06T00:35:01.633Z,82.20
2018-10-06T00:37:30.347Z,81.30
2018-10-06T00:39:59.035Z,82.00
2018-10-06T00:42:27.688Z,82.40
2018-10-06T00:44:56.195Z,82.10
2018-10-06T00:47:24.831Z,82.40
2018-10-06T00:49:53.272Z,82.40
2018-10-06T00:52:21.769Z,81.80
2018-10-06T00:54:50.308Z,82.00
2018-10-06T00:57:18.796Z,82.20
2018-10-06T00:59:47.256Z,82.60
2018-10-06T01:02:15.830Z,83.20
2018-10-06T01:04:44.338Z,83.00
2018-10-06T01:07:12.851Z,82.20
2018-10-06T01:09:41.500Z,82.00
2018-10-06T01:12:10.170Z,82.50
2018-10-06T01:14:38.821Z,81.90
2018-10-06T01:17:07.484Z,82.30
2018-10-06T01:19:36.492Z,82.20
2018-10-06T01:22:05.796Z,82.50
2018-10-06T01:24:34.497Z,82.10
2018-10-06T01:27:03.163Z,82.70
2018-10-06T01:29:32.916Z,82.80
2018-10-06T01:32:03.403Z,83.00
2018-10-06T01:34:32.124Z,83.50
2018-10-06T01:37:01.184Z,83.60
2018-10-06T01:39:30.380Z,83.60
2018-10-06T01:41:59.180Z,83.40
2018-10-06T01:44:27.897Z,83.80
2018-10-06T01:46:56.557Z,83.90
2018-10-06T01:49:25.278Z,84.50
2018-10-06T01:51:53.909Z,84.80
2018-10-06T01:54:22.613Z,84.90
2018-10-06T01:56:51.289Z,84.70
2018-10-06T01:59:19.937Z,84.50
2018-10-06T02:01:48.650Z,85.00
2018-10-06T02:04:17.448Z,84.90
2018-10-06T02:06:46.124Z,85.30
2018-10-06T02:09:14.776Z,85.40
2018-10-06T02:11:43.441Z,85.30
2018-10-06T02:14:12.078Z,85.40
2018-10-06T02:16:40.737Z,84.70
2018-10-06T02:19:09.393Z,85.10
2018-10-06T02:21:38.092Z,85.60
2018-10-06T02:24:06.836Z,85.90
2018-10-06T02:26:35.528Z,85.90
2018-10-06T02:29:04.235Z,85.50
2018-10-06T02:31:32.896Z,85.00
2018-10-06T02:34:01.577Z,85.40
2018-10-06T02:36:30.389Z,85.80
2018-10-06T02:38:59.025Z,86.10
2018-10-06T02:41:27.681Z,86.40
2018-10-06T02:43:56.368Z,86.30
2018-10-06T02:46:25.022Z,86.90
2018-10-06T02:48:53.674Z,85.80
2018-10-06T02:51:22.321Z,86.10
2018-10-06T02:53:50.955Z,86.00
2018-10-06T02:56:19.582Z,86.00
2018-10-06T02:58:48.220Z,86.40
2018-10-06T03:01:16.864Z,86.70
2018-10-06T03:03:45.529Z,86.40
2018-10-06T03:06:14.161Z,86.80
2018-10-06T03:08:42.820Z,86.70
2018-10-06T03:11:11.456Z,87.00
2018-10-06T03:13:40.120Z,87.10
2018-10-06T03:16:08.973Z,87.40
2018-10-06T03:18:37.608Z,87.40
2018-10-06T03:21:06.473Z,87.80
2018-10-06T03:23:35.149Z,88.10
2018-10-06T03:26:03.828Z,88.30
2018-10-06T03:28:32.509Z,88.80
2018-10-06T03:31:01.188Z,89.00
2018-10-06T03:33:29.843Z,89.10
2018-10-06T03:35:58.504Z,89.20
2018-10-06T03:38:27.160Z,89.10
2018-10-06T03:40:55.843Z,88.10
2018-10-06T03:43:24.500Z,86.90
2018-10-06T03:45:53.136Z,86.30
2018-10-06T03:48:21.772Z,86.50
2018-10-06T03:50:50.428Z,86.80
2018-10-06T03:53:19.533Z,86.80
2018-10-06T03:55:48.200Z,87.20
2018-10-06T03:58:16.820Z,87.40
2018-10-06T04:00:45.493Z,88.20
2018-10-06T04:03:14.181Z,88.80
2018-10-06T04:05:42.844Z,89.10
2018-10-06T04:08:11.504Z,89.50
2018-10-06T04:10:40.223Z,90.00
2018-10-06T04:13:09.348Z,90.10
2018-10-06T04:15:38.037Z,90.30
2018-10-06T04:18:06.877Z,90.40
2018-10-06T04:20:35.556Z,90.50
2018-10-06T04:23:04.242Z,90.60
2018-10-06T04:25:32.922Z,90.70
2018-10-06T04:28:01.615Z,90.40
2018-10-06T04:30:30.267Z,90.40
2018-10-06T04:32:58.931Z,90.50
2018-10-06T04:35:27.623Z,90.60
2018-10-06T04:37:56.277Z,90.60
2018-10-06T04:40:24.955Z,90.10
2018-10-06T04:42:53.604Z,89.20
2018-10-06T04:45:22.312Z,89.20
2018-10-06T04:47:50.951Z,89.40
2018-10-06T04:50:19.604Z,90.10
2018-10-06T04:52:48.220Z,90.30
2018-10-06T04:55:16.880Z,90.40
2018-10-06T04:57:45.541Z,90.80
2018-10-06T05:00:14.178Z,90.50
2018-10-06T05:02:42.828Z,90.60
2018-10-06T05:05:11.484Z,90.80
2018-10-06T05:07:40.121Z,91.00
2018-10-06T05:10:08.781Z,90.80
2018-10-06T05:12:37.427Z,90.30
2018-10-06T05:15:06.145Z,90.60
2018-10-06T05:17:34.784Z,90.80
2018-10-06T05:20:03.576Z,91.00
2018-10-06T05:22:32.272Z,91.20
2018-10-06T05:25:00.932Z,91.20
2018-10-06T05:27:29.601Z,91.20
2018-10-06T05:29:58.245Z,90.80
2018-10-06T05:32:26.870Z,90.80
2018-10-06T05:34:55.542Z,90.90
2018-10-06T05:37:24.180Z,91.00
2018-10-06T05:39:52.824Z,91.10
2018-10-06T05:42:21.501Z,91.30
2018-10-06T05:44:50.141Z,91.60
2018-10-06T05:47:18.802Z,91.70
2018-10-06T05:49:47.446Z,91.60
2018-10-06T05:52:16.096Z,91.30
2018-10-06T05:54:44.732Z,91.60
2018-10-06T05:57:13.412Z,91.60
2018-10-06T05:59:42.048Z,91.70
2018-10-06T06:02:10.808Z,91.90
2018-10-06T06:04:39.480Z,91.90
2018-10-06T06:07:08.122Z,91.60
2018-10-06T06:09:36.752Z,91.70
2018-10-06T06:12:05.381Z,91.80
2018-10-06T06:14:34.046Z,92.00
2018-10-06T06:17:03.020Z,92.00
2018-10-06T06:19:31.716Z,92.10
2018-10-06T06:22:00.692Z,91.90
2018-10-06T06:24:29.364Z,91.90
2018-10-06T06:26:58.009Z,91.90
2018-10-06T06:29:26.647Z,91.80
2018-10-06T06:31:55.288Z,91.80
2018-10-06T06:34:25.168Z,91.70
2018-10-06T06:36:54.752Z,91.70
2018-10-06T06:39:23.406Z,91.50
2018-10-06T06:41:52.070Z,91.60
2018-10-06T06:44:20.801Z,91.60
2018-10-06T06:46:49.407Z,91.40
2018-10-06T06:49:18.050Z,91.20
2018-10-06T06:51:46.679Z,90.90
2018-10-06T06:54:15.368Z,91.10
2018-10-06T06:56:43.981Z,91.10
2018-10-06T06:59:12.658Z,91.00
2018-10-06T07:01:41.329Z,90.80
2018-10-06T07:04:09.961Z,90.90
2018-10-06T07:06:38.595Z,90.80
2018-10-06T07:09:08.036Z,90.80
2018-10-06T07:11:36.662Z,91.00
2018-10-06T07:14:05.284Z,90.90
2018-10-06T07:16:33.891Z,90.70
2018-10-06T07:19:02.525Z,90.70
2018-10-06T07:21:31.286Z,90.50
2018-10-06T07:23:59.934Z,90.50
2018-10-06T07:26:28.592Z,90.40
2018-10-06T07:28:57.208Z,90.10
2018-10-06T07:31:26.025Z,90.00
2018-10-06T07:33:54.649Z,90.00
2018-10-06T07:36:23.260Z,89.30
2018-10-06T07:38:51.861Z,89.20
2018-10-06T07:41:20.480Z,88.40
2018-10-06T07:43:49.092Z,86.80
2018-10-06T07:46:17.703Z,85.80
2018-10-06T07:48:46.333Z,84.50
2018-10-06T07:51:14.990Z,83.40
2018-10-06T07:53:43.616Z,83.10
2018-10-06T07:56:12.293Z,82.60
2018-10-06T07:58:40.908Z,82.40
2018-10-06T08:01:09.513Z,81.90
2018-10-06T08:03:38.129Z,82.00
2018-10-06T08:06:06.832Z,82.00
2018-10-06T08:08:35.463Z,81.50
2018-10-06T08:11:04.078Z,81.30
2018-10-06T08:13:32.709Z,81.30
2018-10-06T08:16:01.323Z,81.10
2018-10-06T08:18:29.949Z,81.20
2018-10-06T08:20:58.608Z,80.30
2018-10-06T08:23:27.216Z,79.80
2018-10-06T08:25:55.829Z,79.80
2018-10-06T08:28:24.468Z,79.90
2018-10-06T08:30:53.091Z,79.20
2018-10-06T08:33:21.712Z,78.60
2018-10-06T08:35:50.337Z,77.80
2018-10-06T08:38:18.993Z,77.00
2018-10-06T08:40:47.660Z,76.40
2018-10-06T08:43:16.295Z,75.80
2018-10-06T08:45:44.955Z,75.10
2018-10-06T08:48:13.575Z,74.50
2018-10-06T08:50:42.189Z,73.70
2018-10-06T08:53:10.801Z,73.20
2018-10-06T08:55:39.456Z,72.70
2018-10-06T08:58:08.078Z,71.60
2018-10-06T09:00:36.706Z,71.00
2018-10-06T09:03:05.480Z,70.00
2018-10-06T09:05:34.075Z,69.80
2018-10-06T09:08:02.704Z,69.40
2018-10-06T09:10:31.312Z,69.20
2018-10-06T09:12:59.964Z,68.90
2018-10-06T09:15:28.592Z,68.60
2018-10-06T09:17:57.316Z,68.30
2018-10-06T09:20:25.876Z,68.30
2018-10-06T09:22:54.504Z,68.40
2018-10-06T09:25:23.125Z,70.00
2018-10-06T09:27:51.744Z,70.10
2018-10-06T09:30:20.358Z,69.70
2018-10-06T09:32:48.973Z,70.00
2018-10-06T09:35:17.940Z,71.20
2018-10-06T09:37:46.636Z,70.50
2018-10-06T09:40:15.296Z,70.50
2018-10-06T09:42:44.045Z,70.00
2018-10-06T09:45:12.637Z,70.40
2018-10-06T09:47:41.286Z,70.50
2018-10-06T09:50:09.929Z,70.60
2018-10-06T09:52:38.629Z,70.70
2018-10-06T09:55:07.348Z,70.90
2018-10-06T09:57:36.064Z,70.70
2018-10-06T10:00:04.861Z,71.00
2018-10-06T10:02:38.850Z,71.50
2018-10-06T10:05:13.003Z,72.70
2018-10-06T10:07:41.744Z,71.70
2018-10-06T10:10:10.409Z,72.00
2018-10-06T10:12:39.125Z,72.20
2018-10-06T10:15:07.780Z,71.80
2018-10-06T10:17:36.575Z,70.90
2018-10-06T10:20:05.284Z,69.40
2018-10-06T10:22:33.962Z,68.40
2018-10-06T10:25:02.633Z,67.80
2018-10-06T10:27:31.287Z,67.70
2018-10-06T10:29:59.962Z,66.50
2018-10-06T10:32:28.604Z,66.00
2018-10-06T10:34:57.263Z,66.10
2018-10-06T10:37:26.049Z,66.10
2018-10-06T10:39:54.668Z,66.10
2018-10-06T10:42:23.371Z,66.30
2018-10-06T10:44:52.000Z,65.90
2018-10-06T10:47:20.656Z,65.00
2018-10-06T10:49:49.328Z,63.80
2018-10-06T10:52:18.004Z,62.50
2018-10-06T10:54:46.657Z,61.40
2018-10-06T10:57:15.441Z,60.80
2018-10-06T10:59:44.290Z,60.40
2018-10-06T11:02:12.845Z,60.10
2018-10-06T11:04:41.516Z,59.60
2018-10-06T11:07:10.161Z,59.40
2018-10-06T11:09:38.892Z,59.30
2018-10-06T11:12:08.561Z,59.70
2018-10-06T11:14:37.201Z,59.70
2018-10-06T11:17:05.921Z,59.30
2018-10-06T11:19:34.629Z,57.90
2018-10-06T11:22:03.280Z,57.40
2018-10-06T11:24:31.908Z,56.60
2018-10-06T11:27:00.580Z,55.90
2018-10-06T11:29:29.200Z,55.50
2018-10-06T11:31:57.853Z,55.20
2018-10-06T11:34:26.521Z,55.10
2018-10-06T11:36:55.229Z,55.00
2018-10-06T11:39:23.860Z,54.80
2018-10-06T11:41:52.468Z,54.10
2018-10-06T11:44:21.104Z,53.50
2018-10-06T11:46:49.752Z,53.20
2018-10-06T11:49:18.433Z,52.70
2018-10-06T11:51:47.077Z,52.90
2018-10-06T11:54:15.703Z,53.10
2018-10-06T11:56:44.364Z,52.50
2018-10-06T11:59:13.013Z,52.40
2018-10-06T12:01:41.660Z,52.10
2018-10-06T12:04:10.285Z,52.20
2018-10-06T12:06:38.954Z,52.00
2018-10-06T12:09:08.520Z,51.90
2018-10-06T12:11:37.430Z,51.70
2018-10-06T12:14:06.116Z,51.90
2018-10-06T12:16:34.806Z,51.80
2018-10-06T12:19:03.596Z,51.70
2018-10-06T12:21:32.247Z,51.30
2018-10-06T12:24:00.889Z,51.40
2018-10-06T12:26:29.520Z,52.30
2018-10-06T12:28:58.201Z,52.30
2018-10-06T12:31:26.832Z,52.40
2018-10-06T12:33:55.456Z,52.00
2018-10-06T12:36:25.096Z,52.00
2018-10-06T12:38:53.756Z,52.30
2018-10-06T12:41:22.427Z,52.30
2018-10-06T12:43:51.117Z,52.60
2018-10-06T12:46:19.765Z,52.60
2018-10-06T12:48:48.388Z,52.30
2018-10-06T12:51:17.063Z,53.00
2018-10-06T12:53:46.076Z,52.50
2018-10-06T12:56:15.417Z,53.10
2018-10-06T12:58:44.380Z,52.90
2018-10-06T13:01:13.323Z,52.80
2018-10-06T13:03:42.016Z,53.20
2018-10-06T13:06:12.282Z,53.70
2018-10-06T13:08:41.529Z,54.30
2018-10-06T13:11:10.708Z,54.40
2018-10-06T13:13:40.237Z,55.20
2018-10-06T13:16:09.180Z,55.80
2018-10-06T13:18:37.964Z,56.10
2018-10-06T13:21:07.124Z,55.80
2018-10-06T13:23:36.139Z,55.60
2018-10-06T13:26:05.124Z,55.40
2018-10-06T13:28:33.860Z,54.80
2018-10-06T13:31:02.855Z,55.00
2018-10-06T13:33:31.779Z,55.00
2018-10-06T13:36:00.693Z,54.80
2018-10-06T13:38:29.956Z,55.20
2018-10-06T13:40:58.772Z,55.50
2018-10-06T13:43:27.387Z,56.00
2018-10-06T13:45:56.041Z,56.60
2018-10-06T13:48:24.715Z,57.10
2018-10-06T13:50:53.356Z,57.20
2018-10-06T13:53:22.029Z,58.50
2018-10-06T13:55:50.684Z,58.50
2018-10-06T13:58:19.326Z,58.60
2018-10-06T14:00:48.009Z,59.10
2018-10-06T14:03:16.649Z,59.50
2018-10-06T14:05:45.297Z,60.00
2018-10-06T14:08:13.952Z,60.90
2018-10-06T14:10:42.633Z,61.60
2018-10-06T14:13:11.308Z,61.90
2018-10-06T14:15:39.941Z,62.70
2018-10-06T14:18:08.563Z,63.10
2018-10-06T14:20:37.194Z,62.80
2018-10-06T14:23:05.933Z,63.40
2018-10-06T14:25:34.588Z,63.50
2018-10-06T14:28:03.290Z,63.60
2018-10-06T14:30:31.996Z,64.40
2018-10-06T14:33:00.628Z,64.80
2018-10-06T14:35:29.305Z,65.10
2018-10-06T14:37:57.928Z,65.30
2018-10-06T14:40:26.563Z,65.90
2018-10-06T14:42:55.184Z,66.20
2018-10-06T14:45:23.864Z,66.30
2018-10-06T14:47:52.501Z,66.80
2018-10-06T14:50:21.132Z,68.00
2018-10-06T14:52:49.752Z,67.20
2018-10-06T14:55:18.391Z,67.60
2018-10-06T14:57:47.069Z,67.80
2018-10-06T15:00:15.788Z,68.50
2018-10-06T15:02:44.387Z,69.10
2018-10-06T15:05:13.012Z,69.50
2018-10-06T15:07:41.649Z,70.10
2018-10-06T15:10:10.311Z,70.50
2018-10-06T15:12:38.962Z,70.80
2018-10-06T15:15:07.640Z,71.40
2018-10-06T15:17:36.300Z,71.80
2018-10-06T15:20:05.104Z,71.90
2018-10-06T15:22:33.745Z,71.90
2018-10-06T15:25:02.512Z,72.20
2018-10-06T15:27:31.153Z,72.40
2018-10-06T15:29:59.795Z,73.40
2018-10-06T15:32:28.505Z,72.90
2018-10-06T15:34:57.233Z,73.20
2018-10-06T15:37:25.873Z,73.50
2018-10-06T15:39:54.820Z,73.80
2018-10-06T15:42:23.443Z,74.00
2018-10-06T15:44:52.079Z,74.20
2018-10-06T15:47:20.736Z,74.70
2018-10-06T15:49:49.374Z,74.90
2018-10-06T15:52:18.067Z,75.00
2018-10-06T15:54:46.776Z,75.20
2018-10-06T15:57:15.419Z,75.50
2018-10-06T15:59:44.089Z,75.90
2018-10-06T16:02:12.756Z,76.20
2018-10-06T16:04:41.384Z,76.30
2018-10-06T16:07:10.016Z,76.40
2018-10-06T16:09:38.677Z,77.00
2018-10-06T16:12:07.353Z,77.20
2018-10-06T16:14:36.028Z,77.30
2018-10-06T16:17:04.742Z,77.40
2018-10-06T16:19:33.394Z,77.60
2018-10-06T16:22:02.065Z,77.70
2018-10-06T16:24:30.706Z,77.80
2018-10-06T16:26:59.376Z,78.10
2018-10-06T16:29:28.027Z,78.50
2018-10-06T16:31:56.696Z,78.70
2018-10-06T16:34:25.373Z,79.70
2018-10-06T16:36:54.050Z,79.00
2018-10-06T16:39:22.701Z,79.00
2018-10-06T16:41:51.366Z,79.00
2018-10-06T16:44:20.056Z,79.10
2018-10-06T16:46:48.723Z,79.20
2018-10-06T16:49:17.428Z,79.60
2018-10-06T16:51:46.205Z,79.80
2018-10-06T16:54:14.913Z,80.10
2018-10-06T16:56:43.553Z,80.50
2018-10-06T16:59:12.383Z,80.70
2018-10-06T17:01:41.121Z,81.10
2018-10-06T17:04:09.768Z,81.40
2018-10-06T17:06:38.420Z,81.80
2018-10-06T17:09:09.749Z,82.30
2018-10-06T17:11:38.443Z,82.70
2018-10-06T17:14:07.764Z,83.00
2018-10-06T17:16:36.452Z,83.10
2018-10-06T17:19:07.728Z,83.30
2018-10-06T17:21:36.795Z,83.10
2018-10-06T17:24:06.430Z,83.20
2018-10-06T17:26:35.192Z,83.20
2018-10-06T17:29:03.820Z,83.50
2018-10-06T17:31:32.528Z,84.10
2018-10-06T17:34:01.147Z,84.70
2018-10-06T17:36:29.883Z,85.30
2018-10-06T17:38:58.528Z,85.70
2018-10-06T17:41:27.268Z,86.00
2018-10-06T17:43:57.513Z,86.80
2018-10-06T17:46:26.210Z,86.90
2018-10-06T17:48:54.876Z,87.30
2018-10-06T17:51:23.532Z,87.80
2018-10-06T17:53:52.202Z,88.00
2018-10-06T17:56:20.849Z,88.20
2018-10-06T17:58:49.566Z,88.50
2018-10-06T18:01:18.192Z,89.20
2018-10-06T18:03:47.361Z,89.40
2018-10-06T18:06:16.033Z,90.00
2018-10-06T18:08:44.640Z,90.10
2018-10-06T18:11:13.336Z,90.30
2018-10-06T18:13:41.954Z,90.60
2018-10-06T18:16:10.593Z,90.80
2018-10-06T18:18:39.368Z,91.30
2018-10-06T18:21:08.084Z,91.70
2018-10-06T18:23:36.842Z,92.00
2018-10-06T18:26:05.568Z,92.30
2018-10-06T18:28:34.165Z,92.30
2018-10-06T18:31:05.115Z,92.20
2018-10-06T18:33:34.652Z,92.40
2018-10-06T18:36:03.298Z,92.60
2018-10-06T18:38:32.015Z,92.60
2018-10-06T18:41:00.651Z,92.80
2018-10-06T18:43:29.335Z,93.00
2018-10-06T18:45:58.030Z,93.20
2018-10-06T18:48:26.636Z,93.20
2018-10-06T18:50:55.284Z,93.50
2018-10-06T18:53:23.953Z,93.30
2018-10-06T18:55:52.557Z,93.20
2018-10-06T18:58:24.448Z,93.50
2018-10-06T19:00:53.155Z,93.60
2018-10-06T19:03:21.924Z,93.70
2018-10-06T19:05:50.504Z,93.90
2018-10-06T19:08:19.205Z,94.00
2018-10-06T19:10:47.876Z,94.20
2018-10-06T19:13:16.517Z,94.20
2018-10-06T19:15:45.230Z,94.30
2018-10-06T19:18:13.887Z,94.30
2018-10-06T19:20:42.552Z,94.50
2018-10-06T19:23:11.208Z,94.60
2018-10-06T19:25:39.920Z,94.70
2018-10-06T19:28:08.589Z,94.60
2018-10-06T19:30:37.372Z,94.60
2018-10-06T19:33:06.098Z,94.70
2018-10-06T19:35:34.797Z,94.70
2018-10-06T19:38:03.479Z,94.70
2018-10-06T19:40:32.129Z,94.70
2018-10-06T19:43:00.808Z,94.70
2018-10-06T19:45:29.477Z,94.80
2018-10-06T19:47:58.140Z,94.90
2018-10-06T19:50:26.830Z,95.20
2018-10-06T19:52:55.488Z,95.00
2018-10-06T19:55:24.216Z,95.10
2018-10-06T19:57:52.888Z,95.20
2018-10-06T20:00:21.608Z,95.30
2018-10-06T20:02:50.298Z,95.40
2018-10-06T20:05:18.974Z,95.40
2018-10-06T20:07:47.627Z,95.60
2018-10-06T20:10:16.363Z,95.50
2018-10-06T20:12:45.051Z,95.40
2018-10-06T20:15:13.770Z,95.60
2018-10-06T20:17:48.414Z,95.70
2018-10-06T20:20:20.432Z,95.70
2018-10-06T20:22:49.195Z,95.70
2018-10-06T20:25:18.440Z,95.70
2018-10-06T20:27:47.073Z,95.70
2018-10-06T20:30:15.773Z,95.60
2018-10-06T20:32:44.535Z,95.60
2018-10-06T20:35:13.762Z,95.70
2018-10-06T20:37:42.495Z,95.80
2018-10-06T20:40:11.199Z,95.90
2018-10-06T20:42:39.818Z,95.90
2018-10-06T20:45:08.468Z,96.10
2018-10-06T20:47:37.117Z,96.30
2018-10-06T20:50:05.773Z,96.40
2018-10-06T20:52:34.401Z,96.60
2018-10-06T20:55:03.044Z,96.40
2018-10-06T20:57:31.685Z,96.70
2018-10-06T21:00:00.429Z,96.50
2018-10-06T21:02:29.068Z,96.40
2018-10-06T21:04:57.732Z,96.50
2018-10-06T21:07:26.418Z,96.60
2018-10-06T21:09:55.037Z,96.90
2018-10-06T21:12:23.720Z,96.90
2018-10-06T21:14:52.349Z,97.30
2018-10-06T21:17:20.988Z,97.80
2018-10-06T21:19:49.841Z,97.80
2018-10-06T21:22:18.500Z,98.10
2018-10-06T21:24:47.135Z,98.30
2018-10-06T21:27:15.779Z,98.20
2018-10-06T21:29:44.584Z,98.10
2018-10-06T21:32:13.120Z,98.50
2018-10-06T21:34:41.950Z,98.70
2018-10-06T21:37:10.684Z,99.80
2018-10-06T21:39:39.329Z,99.60
2018-10-06T21:42:07.945Z,99.90
2018-10-06T21:44:36.584Z,99.60
2018-10-06T21:47:05.361Z,99.90
2018-10-06T21:49:34.029Z,99.90
2018-10-06T21:52:02.676Z,99.90
2018-10-06T21:54:31.389Z,99.90
2018-10-06T21:57:00.021Z,99.90
2018-10-06T21:59:28.720Z,99.90
2018-10-06T22:01:58.868Z,99.90
2018-10-06T22:04:27.551Z,99.90
2018-10-06T22:06:56.188Z,99.90
2018-10-06T22:09:24.870Z,99.90
2018-10-06T22:11:53.528Z,99.90
2018-10-06T22:14:22.868Z,99.90
2018-10-06T22:16:51.561Z,99.90
2018-10-06T22:19:20.254Z,99.90
2018-10-06T22:21:51.364Z,99.90
2018-10-06T22:24:21.050Z,99.90
2018-10-06T22:26:49.728Z,99.90
2018-10-06T22:29:28.879Z,99.90
2018-10-06T22:32:04.293Z,99.90
2018-10-06T22:34:37.293Z,99.90
2018-10-06T22:37:08.775Z,99.90
2018-10-06T22:39:37.438Z,99.90
2018-10-06T22:42:06.132Z,99.90
2018-10-06T22:44:34.925Z,99.90
2018-10-06T22:47:03.840Z,99.90
2018-10-06T22:49:33.807Z,99.90
2018-10-06T22:52:02.469Z,99.90
2018-10-06T22:54:31.118Z,99.90
2018-10-06T22:57:00.669Z,99.90
2018-10-06T22:59:29.477Z,99.90
2018-10-06T23:01:58.162Z,99.90
2018-10-06T23:04:26.835Z,99.90
2018-10-06T23:06:55.501Z,99.90
2018-10-06T23:09:24.193Z,99.90
2018-10-06T23:11:52.847Z,99.90
2018-10-06T23:14:21.506Z,99.90
2018-10-06T23:16:50.162Z,99.90
2018-10-06T23:19:19.498Z,99.90
2018-10-06T23:21:48.136Z,99.90
2018-10-06T23:24:16.784Z,99.90
2018-10-06T23:26:45.469Z,99.90
2018-10-06T23:29:14.196Z,99.90
2018-10-06T23:31:42.872Z,99.90
2018-10-06T23:34:11.518Z,99.90
2018-10-06T23:36:41.575Z,99.90
2018-10-06T23:39:10.292Z,99.90
2018-10-06T23:41:44.029Z,99.90
2018-10-06T23:44:13.292Z,99.90
2018-10-06T23:46:44.041Z,99.90
2018-10-06T23:49:12.773Z,99.90
2018-10-06T23:51:41.421Z,99.90
2018-10-06T23:54:10.052Z,99.90
2018-10-06T23:56:38.763Z,99.90
2018-10-06T23:59:07.446Z,99.90
